Forestville, Canada
Current Conditions -  °F | °C
As of 8:00 AM on Wednesday 22 Oct 2014 (Local Time) from CYYY Reporting Station
Clear Clear  
Wind Chill: 27°   Ceiling: Unl
Heat Index: 32°   Visibility: 30mi
Dew Point: 28°   Wind: 5mph
Humidity: 87%   Direction: 80°E
Pressure: 30.48"   Gusts: NA
Location:  48.73°N, 69.07°W
Report Text: CYYY 221200Z 08004KT 30SM SKC M00/M02 A3048 RMK SLP325
Loading
Personal Weather Stations






























Interactive Weather Map New forecast layout! Learn more

10-Day Weather Forecast

Advertisements
Track Severe Weather on mobile